La Porte, Indiana
Current Conditions -  °F | °C
As of 5:15 PM on Saturday 25 Oct 2014 (Local Time) from KPPO Reporting Station
Clear Clear  
Wind Chill: 68°   Ceiling: Unl
Heat Index: 68°   Visibility: 10mi
Dew Point: 35°   Wind: 6mph
Humidity: 29%   Direction: 290°WNW
Pressure: 29.9"   Gusts: NA
Location:  41.61°N, 86.72°W
Report Text: KPPO 252215Z AUTO 29005KT 10SM CLR 20/02 A2990 RMK AO2 T02020017
Loading
Personal Weather Stations






























Interactive Weather Map New forecast layout! Learn more

10-Day Weather Forecast

Advertisements
Track Severe Weather on mobile